Time,TemperatureF,DewpointF,PressureIn,WindDirection,WindDirectionDegrees,WindSpeedMPH,WindSpeedGustMPH,Humidity,HourlyPrecipIn,Conditions,Clouds,dailyrainin,SoftwareType,DateUTC
2013-01-31 00:03:00,34.7,30.0,31.06,NNW,342,0.0,-999.0,83,-99.99,,,0.00,weatherlink.com 1.10,2013-01-31 06:03:00,
2013-01-31 00:18:00,34.9,30.0,31.06,NNW,342,0.0,-999.0,81,-99.99,,,0.00,weatherlink.com 1.10,2013-01-31 06:18:00,
2013-01-31 00:33:00,36.3,30.0,31.06,NNW,342,0.0,-999.0,78,-99.99,,,0.00,weatherlink.com 1.10,2013-01-31 06:33:00,
2013-01-31 00:48:00,35.6,29.0,31.06,NNW,342,0.0,-999.0,78,-99.99,,,0.00,weatherlink.com 1.10,2013-01-31 06:48:00,
2013-01-31 01:03:00,34.9,29.0,31.07,NNW,342,0.0,-999.0,80,-99.99,,,0.00,weatherlink.com 1.10,2013-01-31 07:03:00,
2013-01-31 01:18:00,36.4,30.0,31.07,NNW,333,0.0,-999.0,78,-99.99,,,0.00,weatherlink.com 1.10,2013-01-31 07:18:00,
2013-01-31 01:33:00,35.9,29.0,31.07,NNW,333,0.0,-999.0,77,-99.99,,,0.00,weatherlink.com 1.10,2013-01-31 07:33:00,
2013-01-31 01:48:00,34.6,29.0,31.07,NNW,333,0.0,-999.0,79,-99.99,,,0.00,weatherlink.com 1.10,2013-01-31 07:48:00,
2013-01-31 02:03:00,34.4,29.0,31.06,NNW,333,0.0,-999.0,80,-99.99,,,0.00,weatherlink.com 1.10,2013-01-31 08:03:00,
2013-01-31 02:18:00,33.7,28.0,31.05,NNW,333,0.0,-999.0,81,-99.99,,,0.00,weatherlink.com 1.10,2013-01-31 08:18:00,
2013-01-31 02:33:00,33.7,29.0,31.05,NNW,333,0.0,-999.0,83,-99.99,,,0.00,weatherlink.com 1.10,2013-01-31 08:33:00,
2013-01-31 02:48:00,34.3,29.0,31.05,NNW,333,0.0,-999.0,81,-99.99,,,0.00,weatherlink.com 1.10,2013-01-31 08:48:00,
2013-01-31 03:03:00,33.9,29.0,31.05,NNW,333,0.0,-999.0,81,-99.99,,,0.00,weatherlink.com 1.10,2013-01-31 09:03:00,
2013-01-31 03:18:00,33.2,29.0,31.05,NNW,333,0.0,-999.0,83,-99.99,,,0.00,weatherlink.com 1.10,2013-01-31 09:18:00,
2013-01-31 03:33:00,35.3,29.0,31.05,NNW,333,0.0,-999.0,79,-99.99,,,0.00,weatherlink.com 1.10,2013-01-31 09:33:00,
2013-01-31 03:48:00,36.0,29.0,31.05,NNW,333,0.0,-999.0,76,-99.99,,,0.00,weatherlink.com 1.10,2013-01-31 09:48:00,
2013-01-31 04:03:00,36.3,29.0,31.05,NNW,333,0.0,-999.0,74,-99.99,,,0.00,weatherlink.com 1.10,2013-01-31 10:03:00,
2013-01-31 04:18:00,36.4,29.0,31.04,NNW,333,0.0,-999.0,73,-99.99,,,0.00,weatherlink.com 1.10,2013-01-31 10:18:00,
2013-01-31 04:33:00,35.6,28.0,31.04,NNW,333,0.0,-999.0,75,-99.99,,,0.00,weatherlink.com 1.10,2013-01-31 10:33:00,
2013-01-31 04:48:00,34.3,28.0,31.04,NNW,333,0.0,-999.0,77,-99.99,,,0.00,weatherlink.com 1.10,2013-01-31 10:48:00,
2013-01-31 05:03:00,35.0,28.0,31.05,NNW,333,0.0,-999.0,76,-99.99,,,0.00,weatherlink.com 1.10,2013-01-31 11:03:00,
2013-01-31 05:18:00,35.5,28.0,31.05,NNW,333,0.0,-999.0,75,-99.99,,,0.00,weatherlink.com 1.10,2013-01-31 11:18:00,
2013-01-31 05:33:00,35.4,28.0,31.05,NNW,333,0.0,-999.0,75,-99.99,,,0.00,weatherlink.com 1.10,2013-01-31 11:33:00,
2013-01-31 05:48:00,35.7,28.0,31.06,NNW,333,0.0,-999.0,74,-99.99,,,0.00,weatherlink.com 1.10,2013-01-31 11:48:00,
2013-01-31 06:03:00,35.9,28.0,31.07,NNW,333,0.0,-999.0,73,-99.99,,,0.00,weatherlink.com 1.10,2013-01-31 12:03:00,
2013-01-31 06:18:00,35.8,28.0,31.08,NNW,333,0.0,-999.0,74,-99.99,,,0.00,weatherlink.com 1.10,2013-01-31 12:18:00,
2013-01-31 06:33:00,35.7,27.0,31.07,NNW,333,0.0,-999.0,72,-99.99,,,0.00,weatherlink.com 1.10,2013-01-31 12:33:00,
2013-01-31 06:48:00,35.9,27.0,31.08,NNW,333,0.0,-999.0,71,-99.99,,,0.00,weatherlink.com 1.10,2013-01-31 12:48:00,
2013-01-31 07:03:00,35.6,28.0,31.09,NNW,333,0.0,-999.0,74,-99.99,,,0.00,weatherlink.com 1.10,2013-01-31 13:03:00,
2013-01-31 07:18:00,35.3,27.0,31.11,NNW,333,0.0,-999.0,73,-99.99,,,0.00,weatherlink.com 1.10,2013-01-31 13:18:00,
2013-01-31 07:33:00,35.3,28.0,31.11,NNW,333,0.0,-999.0,74,-99.99,,,0.00,weatherlink.com 1.10,2013-01-31 13:33:00,
2013-01-31 07:48:00,36.2,29.0,31.12,NNW,333,0.0,-999.0,74,-99.99,,,0.00,weatherlink.com 1.10,2013-01-31 13:48:00,
2013-01-31 08:03:00,37.4,30.0,31.13,NNW,332,0.0,-999.0,75,-99.99,,,0.00,weatherlink.com 1.10,2013-01-31 14:03:00,
2013-01-31 08:18:00,38.6,30.0,31.13,West,265,0.0,-999.0,72,-99.99,,,0.00,weatherlink.com 1.10,2013-01-31 14:18:00,
2013-01-31 08:33:00,40.2,31.0,31.13,SW,214,0.0,-999.0,71,-99.99,,,0.00,weatherlink.com 1.10,2013-01-31 14:33:00,
2013-01-31 08:49:00,42.2,32.0,31.14,South,182,0.0,-999.0,67,-99.99,,,0.00,weatherlink.com 1.10,2013-01-31 14:49:00,
2013-01-31 09:04:00,44.0,32.0,31.15,SSW,212,0.0,-999.0,64,-99.99,,,0.00,weatherlink.com 1.10,2013-01-31 15:04:00,
2013-01-31 09:19:00,45.4,33.0,31.15,SSW,208,0.0,-999.0,63,-99.99,,,0.00,weatherlink.com 1.10,2013-01-31 15:19:00,
2013-01-31 09:34:00,47.1,35.0,31.15,SW,216,0.0,-999.0,62,-99.99,,,0.00,weatherlink.com 1.10,2013-01-31 15:34:00,
2013-01-31 09:49:00,48.8,35.0,31.16,SW,224,0.0,-999.0,59,-99.99,,,0.00,weatherlink.com 1.10,2013-01-31 15:49:00,
2013-01-31 10:04:00,50.8,34.0,31.16,SSW,200,0.0,-999.0,54,-99.99,,,0.00,weatherlink.com 1.10,2013-01-31 16:04:00,
2013-01-31 10:19:00,52.7,33.0,31.16,SSW,201,0.0,-999.0,48,-99.99,,,0.00,weatherlink.com 1.10,2013-01-31 16:19:00,
2013-01-31 10:34:00,53.9,33.0,31.16,SSW,192,0.0,-999.0,46,-99.99,,,0.00,weatherlink.com 1.10,2013-01-31 16:34:00,
2013-01-31 10:49:00,55.4,32.0,31.15,SW,217,0.0,-999.0,42,-99.99,,,0.00,weatherlink.com 1.10,2013-01-31 16:49:00,
2013-01-31 11:04:00,56.9,31.0,31.15,South,172,0.0,-999.0,38,-99.99,,,0.00,weatherlink.com 1.10,2013-01-31 17:04:00,
2013-01-31 11:19:00,57.8,29.0,31.15,SSW,196,0.0,-999.0,34,-99.99,,,0.00,weatherlink.com 1.10,2013-01-31 17:19:00,
2013-01-31 11:33:00,58.7,32.0,31.15,South,188,0.0,-999.0,36,-99.99,,,0.00,weatherlink.com 1.10,2013-01-31 17:33:00,
2013-01-31 11:49:00,59.8,30.0,31.14,SW,229,0.0,-999.0,32,-99.99,,,0.00,weatherlink.com 1.10,2013-01-31 17:49:00,
2013-01-31 12:05:00,60.3,31.0,31.14,WSW,238,0.0,-999.0,33,-99.99,,,0.00,weatherlink.com 1.10,2013-01-31 18:05:00,
2013-01-31 12:19:00,61.6,31.0,31.14,WSW,238,0.0,-999.0,31,-99.99,,,0.00,weatherlink.com 1.10,2013-01-31 18:19:00,
2013-01-31 12:34:00,62.3,30.0,31.12,SW,221,0.0,-999.0,30,-99.99,,,0.00,weatherlink.com 1.10,2013-01-31 18:34:00,
2013-01-31 12:49:00,63.2,31.0,31.12,WSW,241,0.0,-999.0,30,-99.99,,,0.00,weatherlink.com 1.10,2013-01-31 18:49:00,
2013-01-31 13:05:00,63.4,30.0,31.11,SW,222,0.0,-999.0,29,-99.99,,,0.00,weatherlink.com 1.10,2013-01-31 19:05:00,
2013-01-31 13:19:00,63.7,30.0,31.09,SW,215,0.0,-999.0,28,-99.99,,,0.00,weatherlink.com 1.10,2013-01-31 19:19:00,
2013-01-31 13:34:00,64.3,33.0,31.08,SSW,213,0.0,-999.0,31,-99.99,,,0.00,weatherlink.com 1.10,2013-01-31 19:34:00,
2013-01-31 13:49:00,64.2,28.0,31.08,SW,216,0.0,-999.0,26,-99.99,,,0.00,weatherlink.com 1.10,2013-01-31 19:49:00,
2013-01-31 14:05:00,64.6,31.0,31.07,SW,233,0.0,-999.0,28,-99.99,,,0.00,weatherlink.com 1.10,2013-01-31 20:05:00,
2013-01-31 14:19:00,65.1,27.0,31.07,SSW,195,0.0,-999.0,24,-99.99,,,0.00,weatherlink.com 1.10,2013-01-31 20:19:00,
2013-01-31 14:34:00,65.0,31.0,31.07,SSW,213,0.0,-999.0,28,-99.99,,,0.00,weatherlink.com 1.10,2013-01-31 20:34:00,
2013-01-31 14:49:00,65.9,29.0,31.06,NW,317,0.0,-999.0,25,-99.99,,,0.00,weatherlink.com 1.10,2013-01-31 20:49:00,
2013-01-31 15:05:00,66.1,27.0,31.06,SSW,200,0.0,-999.0,23,-99.99,,,0.00,weatherlink.com 1.10,2013-01-31 21:05:00,
2013-01-31 15:19:00,66.1,29.0,31.05,SW,234,0.0,-999.0,25,-99.99,,,0.00,weatherlink.com 1.10,2013-01-31 21:19:00,
2013-01-31 15:34:00,66.1,30.0,31.04,SW,232,0.0,-999.0,26,-99.99,,,0.00,weatherlink.com 1.10,2013-01-31 21:34:00,
2013-01-31 15:49:00,65.9,27.0,31.05,WSW,237,0.0,-999.0,23,-99.99,,,0.00,weatherlink.com 1.10,2013-01-31 21:49:00,
2013-01-31 16:06:00,66.0,26.0,31.05,WSW,250,0.0,-999.0,22,-99.99,,,0.00,weatherlink.com 1.10,2013-01-31 22:06:00,
2013-01-31 16:20:00,65.8,30.0,31.05,SW,222,0.0,-999.0,26,-99.99,,,0.00,weatherlink.com 1.10,2013-01-31 22:20:00,
2013-01-31 16:35:00,65.5,30.0,31.05,South,188,0.0,-999.0,27,-99.99,,,0.00,weatherlink.com 1.10,2013-01-31 22:35:00,
2013-01-31 16:50:00,65.1,28.0,31.04,SSW,194,0.0,-999.0,25,-99.99,,,0.00,weatherlink.com 1.10,2013-01-31 22:50:00,
2013-01-31 17:05:00,64.5,29.0,31.04,SSW,196,0.0,-999.0,26,-99.99,,,0.00,weatherlink.com 1.10,2013-01-31 23:05:00,
2013-01-31 17:19:00,63.3,27.0,31.04,SW,229,0.0,-999.0,25,-99.99,,,0.00,weatherlink.com 1.10,2013-01-31 23:19:00,
2013-01-31 17:34:00,62.0,27.0,31.04,SSW,198,0.0,-999.0,27,-99.99,,,0.00,weatherlink.com 1.10,2013-01-31 23:34:00,
2013-01-31 17:49:00,60.7,29.0,31.04,SSW,211,0.0,-999.0,30,-99.99,,,0.00,weatherlink.com 1.10,2013-01-31 23:49:00,
2013-01-31 18:05:00,59.2,28.0,31.03,SSW,211,0.0,-999.0,31,-99.99,,,0.00,weatherlink.com 1.10,2013-02-01 00:05:00,
2013-01-31 18:19:00,56.1,31.0,31.04,SSW,211,0.0,-999.0,38,-99.99,,,0.00,weatherlink.com 1.10,2013-02-01 00:19:00,
2013-01-31 18:34:00,53.8,31.0,31.05,SSW,211,0.0,-999.0,42,-99.99,,,0.00,weatherlink.com 1.10,2013-02-01 00:34:00,
2013-01-31 18:49:00,51.8,32.0,31.05,SSW,211,0.0,-999.0,47,-99.99,,,0.00,weatherlink.com 1.10,2013-02-01 00:49:00,
2013-01-31 19:06:00,50.5,32.0,31.07,SSW,211,0.0,-999.0,49,-99.99,,,0.00,weatherlink.com 1.10,2013-02-01 01:06:00,
2013-01-31 19:20:00,48.4,33.0,31.07,SSW,211,0.0,-999.0,55,-99.99,,,0.00,weatherlink.com 1.10,2013-02-01 01:20:00,
2013-01-31 19:35:00,47.0,33.0,31.08,SSW,211,0.0,-999.0,58,-99.99,,,0.00,weatherlink.com 1.10,2013-02-01 01:35:00,
2013-01-31 19:50:00,50.0,31.0,31.09,SSW,200,0.0,-999.0,49,-99.99,,,0.00,weatherlink.com 1.10,2013-02-01 01:50:00,
2013-01-31 20:05:00,53.1,31.0,31.10,SSW,201,0.0,-999.0,43,-99.99,,,0.00,weatherlink.com 1.10,2013-02-01 02:05:00,
2013-01-31 20:19:00,52.0,32.0,31.11,SSW,194,0.0,-999.0,46,-99.99,,,0.00,weatherlink.com 1.10,2013-02-01 02:19:00,
2013-01-31 20:34:00,52.5,33.0,31.12,SSW,211,0.0,-999.0,47,-99.99,,,0.00,weatherlink.com 1.10,2013-02-01 02:34:00,
2013-01-31 20:49:00,53.0,34.0,31.13,SSW,202,0.0,-999.0,48,-99.99,,,0.00,weatherlink.com 1.10,2013-02-01 02:49:00,
2013-01-31 21:05:00,53.2,34.0,31.12,South,187,0.0,-999.0,48,-99.99,,,0.00,weatherlink.com 1.10,2013-02-01 03:05:00,
2013-01-31 21:19:00,52.8,34.0,31.12,SSW,192,0.0,-999.0,50,-99.99,,,0.00,weatherlink.com 1.10,2013-02-01 03:19:00,
2013-01-31 21:34:00,52.8,35.0,31.13,South,185,0.0,-999.0,51,-99.99,,,0.00,weatherlink.com 1.10,2013-02-01 03:34:00,
2013-01-31 21:49:00,52.3,35.0,31.12,SSW,202,0.0,-999.0,52,-99.99,,,0.00,weatherlink.com 1.10,2013-02-01 03:49:00,
2013-01-31 22:05:00,52.1,35.0,31.13,SSW,192,0.0,-999.0,53,-99.99,,,0.00,weatherlink.com 1.10,2013-02-01 04:05:00,
2013-01-31 22:19:00,51.3,35.0,31.13,SSW,198,0.0,-999.0,55,-99.99,,,0.00,weatherlink.com 1.10,2013-02-01 04:19:00,
2013-01-31 22:34:00,51.0,36.0,31.14,SSW,207,0.0,-999.0,57,-99.99,,,0.00,weatherlink.com 1.10,2013-02-01 04:34:00,
2013-01-31 22:49:00,51.2,36.0,31.13,SSW,199,0.0,-999.0,56,-99.99,,,0.00,weatherlink.com 1.10,2013-02-01 04:49:00,
2013-01-31 23:05:00,51.2,36.0,31.13,SSW,202,0.0,-999.0,57,-99.99,,,0.00,weatherlink.com 1.10,2013-02-01 05:05:00,
2013-01-31 23:19:00,51.1,36.0,31.13,SSW,194,0.0,-999.0,57,-99.99,,,0.00,weatherlink.com 1.10,2013-02-01 05:19:00,
2013-01-31 23:34:00,50.9,36.0,31.13,SSW,205,0.0,-999.0,58,-99.99,,,0.00,weatherlink.com 1.10,2013-02-01 05:34:00,
2013-01-31 23:49:00,50.4,36.0,31.13,South,190,0.0,-999.0,59,-99.99,,,0.00,weatherlink.com 1.10,2013-02-01 05:49:00,